Time;durP1;ratioP1;P1;durP2;ratioP2;P2;SDS_P1;SDS_P2;PMS_P1;PMS_P2;Temp;Humidity;BMP_temperature;BMP_pressure;BME280_temperature;BME280_humidity;BME280_pressure;Samples;Min_cycle;Max_cycle;Signal;HPM_P1;HPM_P2
2022/12/02 00:01:38;;;;;;;82.07;31.60;;;;;;;;;;5030611;28;20179;-72
2022/12/02 00:04:13;;;;;;;82.17;30.00;;;;;;;;;;5009229;28;20626;-73
2022/12/02 00:06:38;;;;;;;78.30;29.57;;;;;;;;;;5028406;28;20206;-72
2022/12/02 00:09:22;;;;;;;77.93;29.30;;;;;;;;;;5028256;28;20228;-73
2022/12/02 00:11:48;;;;;;;79.57;31.90;;;;;;;;;;5028069;28;20170;-73
2022/12/02 00:14:15;;;;;;;79.97;31.30;;;;;;;;;;5033346;28;20185;-73
2022/12/02 00:16:40;;;;;;;88.40;31.53;;;;;;;;;;5030788;28;20205;-73
2022/12/02 00:19:06;;;;;;;74.10;30.93;;;;;;;;;;5029615;28;20178;-72
2022/12/02 00:21:31;;;;;;;82.07;33.37;;;;;;;;;;5028109;28;20672;-74
2022/12/02 00:23:56;;;;;;;78.10;30.70;;;;;;;;;;5030989;28;20566;-73
2022/12/02 00:26:21;;;;;;;72.37;31.03;;;;;;;;;;5027929;28;20234;-72
2022/12/02 00:28:46;;;;;;;79.63;32.70;;;;;;;;;;5031115;28;20262;-72
2022/12/02 00:31:12;;;;;;;78.73;32.40;;;;;;;;;;5024714;28;20520;-72
2022/12/02 00:33:37;;;;;;;71.27;28.90;;;;;;;;;;5015457;28;20547;-72
2022/12/02 00:36:02;;;;;;;72.40;31.57;;;;;;;;;;5037601;28;20617;-72
2022/12/02 00:38:27;;;;;;;84.13;32.17;;;;;;;;;;5029483;28;20186;-72
2022/12/02 00:40:52;;;;;;;79.53;31.90;;;;;;;;;;5030157;28;20182;-73
2022/12/02 00:48:45;;;;;;;84.53;34.37;;;;;;;;;;5036440;28;20227;-72
2022/12/02 00:51:10;;;;;;;84.40;34.37;;;;;;;;;;5036012;28;20182;-73
2022/12/02 00:53:36;;;;;;;83.73;34.10;;;;;;;;;;5037817;28;20201;-72
2022/12/02 00:56:01;;;;;;;80.03;33.97;;;;;;;;;;5036121;28;20201;-72
2022/12/02 00:58:26;;;;;;;82.77;34.47;;;;;;;;;;5035776;28;20206;-73
2022/12/02 01:00:51;;;;;;;84.00;34.97;;;;;;;;;;5031764;28;20178;-73
2022/12/02 01:03:16;;;;;;;86.93;36.77;;;;;;;;;;5011078;28;20258;-72
2022/12/02 01:05:42;;;;;;;89.67;35.37;;;;;;;;;;5031671;28;20198;-73
2022/12/02 01:08:07;;;;;;;88.07;36.00;;;;;;;;;;5036669;28;20665;-72
2022/12/02 01:10:32;;;;;;;90.50;36.67;;;;;;;;;;5034703;28;20194;-73
2022/12/02 01:12:58;;;;;;;92.37;36.57;;;;;;;;;;5036567;28;20174;-73
2022/12/02 01:15:23;;;;;;;82.20;36.07;;;;;;;;;;5037394;28;20201;-73
2022/12/02 01:17:48;;;;;;;87.03;35.43;;;;;;;;;;5036806;28;20304;-72
2022/12/02 01:20:13;;;;;;;75.67;32.87;;;;;;;;;;5034597;28;20608;-72
2022/12/02 01:22:38;;;;;;;79.63;34.73;;;;;;;;;;5035284;28;20178;-73
2022/12/02 01:25:04;;;;;;;88.63;36.03;;;;;;;;;;5036862;28;20208;-73
2022/12/02 01:27:29;;;;;;;83.47;33.93;;;;;;;;;;5036863;28;20570;-73
2022/12/02 01:29:54;;;;;;;80.33;34.03;;;;;;;;;;5037430;28;20553;-72
2022/12/02 01:32:19;;;;;;;79.63;32.57;;;;;;;;;;5037930;28;20220;-73
2022/12/02 01:34:45;;;;;;;81.30;36.07;;;;;;;;;;5035747;28;20181;-72
2022/12/02 01:37:10;;;;;;;76.33;32.77;;;;;;;;;;5061068;22;20229;-79
2022/12/02 01:39:35;;;;;;;84.97;35.63;;;;;;;;;;5035886;28;20178;-79
2022/12/02 01:42:01;;;;;;;81.83;35.20;;;;;;;;;;5046476;28;20192;-80
2022/12/02 01:44:26;;;;;;;79.23;33.43;;;;;;;;;;5053215;28;20208;-80
2022/12/02 01:46:51;;;;;;;85.67;35.20;;;;;;;;;;5034937;28;20202;-79
2022/12/02 01:49:17;;;;;;;73.97;32.40;;;;;;;;;;5057282;28;20469;-79
2022/12/02 01:51:42;;;;;;;73.93;33.93;;;;;;;;;;5050528;28;20187;-79
2022/12/02 01:54:07;;;;;;;79.80;34.43;;;;;;;;;;5051102;28;20246;-80
2022/12/02 01:56:32;;;;;;;80.00;34.03;;;;;;;;;;5047543;28;20210;-80
2022/12/02 01:58:58;;;;;;;90.53;35.17;;;;;;;;;;5044048;28;20168;-80
2022/12/02 02:01:23;;;;;;;86.60;35.33;;;;;;;;;;5027033;28;20197;-79
2022/12/02 02:03:48;;;;;;;74.43;32.47;;;;;;;;;;5045248;28;20198;-80
2022/12/02 02:06:13;;;;;;;79.40;33.33;;;;;;;;;;5027705;28;20202;-79
2022/12/02 02:08:38;;;;;;;85.40;32.87;;;;;;;;;;5043769;28;20179;-80
2022/12/02 02:11:04;;;;;;;85.87;33.63;;;;;;;;;;5041679;28;20178;-79
2022/12/02 02:13:29;;;;;;;86.67;36.13;;;;;;;;;;5044502;28;20180;-79
2022/12/02 02:15:54;;;;;;;70.53;31.00;;;;;;;;;;5051753;28;20194;-80
2022/12/02 02:18:19;;;;;;;78.67;32.83;;;;;;;;;;5043762;28;20178;-79
2022/12/02 02:20:44;;;;;;;77.30;32.77;;;;;;;;;;5045368;28;20183;-79
2022/12/02 02:23:13;;;;;;;88.47;35.00;;;;;;;;;;5043581;28;20175;-80
2022/12/02 02:25:39;;;;;;;73.70;32.67;;;;;;;;;;5028168;28;20198;-80
2022/12/02 02:28:05;;;;;;;73.97;32.77;;;;;;;;;;5047282;28;20225;-80
2022/12/02 02:30:31;;;;;;;83.67;34.97;;;;;;;;;;5044909;28;20183;-80
2022/12/02 02:32:57;;;;;;;72.00;30.70;;;;;;;;;;5041980;28;20194;-79
2022/12/02 02:35:23;;;;;;;77.53;30.77;;;;;;;;;;5046295;28;20175;-80
2022/12/02 02:37:49;;;;;;;72.27;29.90;;;;;;;;;;5045893;28;20185;-79
2022/12/02 02:40:15;;;;;;;79.13;33.77;;;;;;;;;;5046524;28;20197;-80
2022/12/02 02:42:42;;;;;;;79.30;34.10;;;;;;;;;;5045181;28;20190;-80
2022/12/02 02:45:07;;;;;;;84.83;36.13;;;;;;;;;;5028720;28;20186;-79
2022/12/02 02:47:33;;;;;;;70.53;32.43;;;;;;;;;;5046152;28;20233;-80
2022/12/02 02:49:58;;;;;;;79.57;34.17;;;;;;;;;;5027737;28;20183;-79
2022/12/02 02:52:23;;;;;;;73.20;32.80;;;;;;;;;;5030532;28;20220;-79
2022/12/02 02:54:48;;;;;;;67.20;30.03;;;;;;;;;;5046224;28;20202;-79
2022/12/02 02:57:13;;;;;;;73.13;31.47;;;;;;;;;;5046133;28;20693;-80
2022/12/02 02:59:40;;;;;;;71.13;30.73;;;;;;;;;;5045625;28;20238;-80
2022/12/02 03:02:07;;;;;;;66.23;28.97;;;;;;;;;;5044305;28;20186;-80
2022/12/02 03:04:32;;;;;;;68.73;30.20;;;;;;;;;;5046325;28;20182;-80
2022/12/02 03:06:57;;;;;;;71.47;29.60;;;;;;;;;;5040071;28;20210;-80
2022/12/02 03:09:23;;;;;;;71.83;30.27;;;;;;;;;;5044651;28;20189;-80
2022/12/02 03:11:49;;;;;;;65.73;29.43;;;;;;;;;;5035492;28;20293;-79
2022/12/02 03:14:15;;;;;;;65.50;29.43;;;;;;;;;;5028707;28;20214;-79
2022/12/02 03:16:41;;;;;;;66.17;27.97;;;;;;;;;;5044726;28;20209;-79
2022/12/02 03:19:07;;;;;;;61.90;27.30;;;;;;;;;;5027847;28;20186;-80
2022/12/02 03:21:33;;;;;;;58.97;28.17;;;;;;;;;;5022445;28;20182;-79
2022/12/02 03:23:59;;;;;;;60.93;27.23;;;;;;;;;;5041431;28;20174;-80
2022/12/02 03:26:27;;;;;;;62.57;28.83;;;;;;;;;;5041268;28;20207;-80
2022/12/02 03:28:52;;;;;;;63.67;27.23;;;;;;;;;;5042622;28;20589;-80
2022/12/02 03:31:17;;;;;;;72.77;29.33;;;;;;;;;;5025768;28;20179;-79
2022/12/02 03:33:43;;;;;;;57.60;26.40;;;;;;;;;;5030955;28;20170;-80
2022/12/02 03:36:08;;;;;;;69.50;27.60;;;;;;;;;;5046181;28;20214;-80
2022/12/02 03:38:34;;;;;;;62.57;26.73;;;;;;;;;;5043619;28;20174;-80
2022/12/02 03:41:00;;;;;;;59.40;25.27;;;;;;;;;;5037103;28;20189;-80
2022/12/02 03:43:26;;;;;;;59.60;26.40;;;;;;;;;;5044826;28;20178;-80
2022/12/02 03:45:51;;;;;;;59.90;26.83;;;;;;;;;;5035420;28;20201;-79
2022/12/02 03:48:20;;;;;;;58.73;25.60;;;;;;;;;;5018131;28;20178;-79
2022/12/02 03:50:46;;;;;;;63.17;25.57;;;;;;;;;;5018174;28;20181;-79
2022/12/02 03:53:11;;;;;;;56.07;24.50;;;;;;;;;;5036692;28;20174;-79
2022/12/02 03:55:36;;;;;;;59.53;23.43;;;;;;;;;;5023245;28;20205;-80
2022/12/02 03:58:02;;;;;;;57.23;24.30;;;;;;;;;;5024453;28;20449;-80
2022/12/02 04:00:28;;;;;;;56.07;23.73;;;;;;;;;;5040142;28;20185;-80
2022/12/02 04:02:53;;;;;;;53.63;23.77;;;;;;;;;;5028003;28;20204;-79
2022/12/02 04:05:18;;;;;;;55.10;22.97;;;;;;;;;;5037678;28;20264;-80
2022/12/02 04:07:43;;;;;;;55.13;23.10;;;;;;;;;;5033559;28;20205;-80
2022/12/02 04:10:08;;;;;;;50.67;22.47;;;;;;;;;;5036993;28;20178;-80
2022/12/02 04:12:34;;;;;;;61.33;23.73;;;;;;;;;;5012455;28;20193;-80
2022/12/02 04:14:59;;;;;;;52.63;21.37;;;;;;;;;;5020824;28;20174;-80
2022/12/02 04:17:24;;;;;;;62.47;23.40;;;;;;;;;;5039039;28;20252;-80
2022/12/02 04:19:49;;;;;;;51.03;21.33;;;;;;;;;;5038207;28;20181;-79
2022/12/02 04:22:14;;;;;;;49.47;22.17;;;;;;;;;;5020861;28;20182;-79
2022/12/02 04:24:40;;;;;;;56.27;22.17;;;;;;;;;;5039489;28;20178;-80
2022/12/02 04:27:05;;;;;;;56.80;23.07;;;;;;;;;;5040494;28;20201;-79
2022/12/02 04:29:30;;;;;;;50.67;21.20;;;;;;;;;;5040865;28;20270;-80
2022/12/02 04:31:55;;;;;;;55.23;23.47;;;;;;;;;;5040739;28;20236;-80
2022/12/02 04:34:21;;;;;;;57.43;23.97;;;;;;;;;;5043297;28;20225;-79
2022/12/02 04:36:46;;;;;;;61.80;23.83;;;;;;;;;;5041512;28;20216;-80
2022/12/02 04:39:11;;;;;;;52.87;22.03;;;;;;;;;;5037827;28;20532;-80
2022/12/02 04:41:36;;;;;;;47.30;20.17;;;;;;;;;;5022811;28;20705;-80
2022/12/02 04:44:02;;;;;;;56.07;22.80;;;;;;;;;;5042270;28;20289;-80
2022/12/02 04:46:27;;;;;;;54.57;24.03;;;;;;;;;;5024574;28;20522;-80
2022/12/02 04:48:53;;;;;;;57.03;22.47;;;;;;;;;;5040529;28;20194;-80
2022/12/02 04:51:18;;;;;;;58.10;24.57;;;;;;;;;;5039750;28;20644;-79
2022/12/02 04:53:43;;;;;;;51.43;22.00;;;;;;;;;;5041348;28;20173;-79
2022/12/02 04:56:08;;;;;;;57.67;23.07;;;;;;;;;;5045834;28;20292;-80
2022/12/02 04:58:33;;;;;;;57.73;22.33;;;;;;;;;;5045957;28;20209;-80
2022/12/02 05:00:58;;;;;;;53.03;24.53;;;;;;;;;;5029900;28;20183;-80
2022/12/02 05:03:24;;;;;;;56.37;23.20;;;;;;;;;;5019656;28;20232;-80
2022/12/02 05:05:49;;;;;;;52.57;22.57;;;;;;;;;;5022541;28;20195;-80
2022/12/02 05:08:14;;;;;;;64.23;24.93;;;;;;;;;;5040112;28;20211;-80
2022/12/02 05:10:39;;;;;;;61.37;23.60;;;;;;;;;;5048113;28;20193;-80
2022/12/02 05:13:04;;;;;;;56.03;24.93;;;;;;;;;;5043435;28;20174;-80
2022/12/02 05:15:30;;;;;;;55.67;24.37;;;;;;;;;;5018416;28;20199;-80
2022/12/02 05:17:55;;;;;;;57.73;24.60;;;;;;;;;;5041140;28;20178;-80
2022/12/02 05:20:20;;;;;;;64.17;23.67;;;;;;;;;;5030648;28;20178;-79
2022/12/02 05:22:45;;;;;;;58.33;23.47;;;;;;;;;;5031588;28;20606;-80
2022/12/02 05:25:11;;;;;;;61.07;23.07;;;;;;;;;;5047138;28;20201;-80
2022/12/02 05:27:36;;;;;;;56.77;24.33;;;;;;;;;;5046137;28;20217;-80
2022/12/02 05:30:03;;;;;;;63.57;26.33;;;;;;;;;;5047077;28;20550;-80
2022/12/02 05:32:28;;;;;;;64.27;24.70;;;;;;;;;;5037636;28;20640;-80
2022/12/02 05:34:53;;;;;;;59.27;25.10;;;;;;;;;;5048123;28;20281;-80
2022/12/02 05:37:18;;;;;;;59.47;23.87;;;;;;;;;;5035093;28;20205;-80
2022/12/02 05:39:43;;;;;;;61.77;23.80;;;;;;;;;;5049811;28;20182;-80
2022/12/02 05:42:12;;;;;;;63.90;23.90;;;;;;;;;;5045574;28;20178;-79
2022/12/02 05:44:37;;;;;;;64.23;24.63;;;;;;;;;;5044219;28;20244;-80
2022/12/02 05:47:09;;;;;;;62.63;24.77;;;;;;;;;;5029497;28;20211;-80
2022/12/02 05:49:34;;;;;;;63.87;26.00;;;;;;;;;;5046952;28;20182;-80
2022/12/02 05:52:00;;;;;;;61.20;25.80;;;;;;;;;;5045924;28;20186;-80
2022/12/02 05:54:26;;;;;;;61.93;25.23;;;;;;;;;;5047918;28;20186;-80
2022/12/02 05:56:52;;;;;;;57.90;24.93;;;;;;;;;;5047439;28;20261;-80
2022/12/02 05:59:18;;;;;;;58.37;24.13;;;;;;;;;;5029838;28;20186;-79
2022/12/02 06:01:51;;;;;;;58.57;23.23;;;;;;;;;;5047161;28;20196;-80
2022/12/02 06:04:19;;;;;;;53.23;22.73;;;;;;;;;;5047907;28;20568;-80
2022/12/02 06:06:44;;;;;;;59.90;21.80;;;;;;;;;;5041594;28;20248;-80
2022/12/02 06:09:12;;;;;;;59.47;24.30;;;;;;;;;;5029338;28;20170;-80
2022/12/02 06:11:38;;;;;;;53.50;20.23;;;;;;;;;;5044297;28;20182;-80
2022/12/02 06:14:14;;;;;;;52.63;19.97;;;;;;;;;;5026366;28;20174;-79
2022/12/02 06:16:39;;;;;;;52.70;21.20;;;;;;;;;;5045525;28;20668;-80
2022/12/02 06:19:20;;;;;;;46.37;21.20;;;;;;;;;;5027188;28;20182;-80
2022/12/02 06:21:46;;;;;;;51.17;20.90;;;;;;;;;;5039062;28;20217;-79
2022/12/02 06:24:11;;;;;;;52.20;22.03;;;;;;;;;;5047344;28;20178;-80
2022/12/02 06:26:36;;;;;;;51.63;20.83;;;;;;;;;;5047304;28;20209;-79
2022/12/02 06:29:02;;;;;;;54.97;22.93;;;;;;;;;;5022891;28;20179;-80
2022/12/02 06:31:33;;;;;;;46.67;21.13;;;;;;;;;;5043962;28;20178;-80
2022/12/02 06:33:59;;;;;;;47.30;20.80;;;;;;;;;;5032739;28;21173;-80
2022/12/02 06:36:25;;;;;;;50.00;20.10;;;;;;;;;;5042481;28;20281;-80
2022/12/02 06:38:55;;;;;;;49.73;20.73;;;;;;;;;;5046134;28;20216;-80
2022/12/02 06:41:22;;;;;;;48.20;19.73;;;;;;;;;;5043048;28;20194;-81
2022/12/02 06:46:39;;;;;;;47.27;20.33;;;;;;;;;;5017388;28;20229;-80
2022/12/02 06:49:24;;;;;;;46.57;20.30;;;;;;;;;;5048278;28;20174;-80
2022/12/02 06:51:54;;;;;;;41.17;16.67;;;;;;;;;;5044950;28;20177;-81
2022/12/02 06:54:21;;;;;;;39.83;17.00;;;;;;;;;;5045247;28;20174;-81
2022/12/02 06:56:47;;;;;;;47.27;18.80;;;;;;;;;;5045055;28;20198;-80
2022/12/02 06:59:14;;;;;;;36.33;16.60;;;;;;;;;;5044933;28;20671;-81
2022/12/02 07:01:41;;;;;;;41.60;16.80;;;;;;;;;;5037198;28;20651;-79
2022/12/02 07:04:25;;;;;;;44.03;17.27;;;;;;;;;;5042823;28;20628;-81
2022/12/02 07:06:53;;;;;;;42.20;18.33;;;;;;;;;;5046067;28;20201;-81
2022/12/02 07:09:21;;;;;;;39.63;17.97;;;;;;;;;;5026124;28;20182;-81
2022/12/02 07:11:50;;;;;;;38.30;17.10;;;;;;;;;;5021497;28;20175;-80
2022/12/02 07:14:34;;;;;;;38.23;17.77;;;;;;;;;;5044276;28;20178;-81
2022/12/02 07:17:01;;;;;;;49.20;17.60;;;;;;;;;;5037806;28;20210;-80
2022/12/02 07:19:31;;;;;;;38.43;16.07;;;;;;;;;;5025456;28;20639;-81
2022/12/02 07:21:56;;;;;;;44.93;19.80;;;;;;;;;;5030755;28;20167;-80
2022/12/02 07:24:22;;;;;;;46.87;16.77;;;;;;;;;;5043844;28;20178;-80
2022/12/02 07:26:48;;;;;;;35.63;16.97;;;;;;;;;;5023823;28;20202;-79
2022/12/02 07:29:15;;;;;;;38.73;15.90;;;;;;;;;;5041485;28;20174;-78
2022/12/02 07:31:43;;;;;;;38.63;16.50;;;;;;;;;;5025678;28;20171;-79
2022/12/02 07:34:08;;;;;;;36.03;15.40;;;;;;;;;;5035589;28;20197;-79
2022/12/02 07:36:34;;;;;;;38.27;15.73;;;;;;;;;;5044146;28;20221;-79
2022/12/02 07:38:59;;;;;;;35.47;15.83;;;;;;;;;;5026821;28;20201;-79
2022/12/02 07:41:24;;;;;;;36.73;16.83;;;;;;;;;;5025380;28;20213;-79
2022/12/02 07:43:49;;;;;;;37.93;16.10;;;;;;;;;;5024312;28;20722;-80
2022/12/02 07:46:14;;;;;;;29.47;14.07;;;;;;;;;;5035591;28;20214;-80
2022/12/02 07:48:40;;;;;;;38.00;15.67;;;;;;;;;;5044220;28;20316;-79
2022/12/02 07:51:05;;;;;;;30.77;13.27;;;;;;;;;;5025500;28;20304;-79
2022/12/02 07:53:30;;;;;;;28.97;13.00;;;;;;;;;;5043801;28;20182;-79
2022/12/02 07:55:57;;;;;;;34.20;15.23;;;;;;;;;;5042071;28;20201;-79
2022/12/02 07:58:22;;;;;;;29.20;14.17;;;;;;;;;;5044668;28;20171;-82
2022/12/02 08:00:47;;;;;;;28.77;12.50;;;;;;;;;;5024646;28;20196;-79
2022/12/02 08:03:12;;;;;;;29.80;13.73;;;;;;;;;;5036119;28;20193;-79
2022/12/02 08:05:37;;;;;;;33.03;15.43;;;;;;;;;;5044698;28;20190;-79
2022/12/02 08:08:03;;;;;;;28.80;13.67;;;;;;;;;;5043797;28;20201;-79
2022/12/02 08:10:28;;;;;;;31.73;14.17;;;;;;;;;;5040551;28;20626;-79
2022/12/02 08:12:53;;;;;;;32.07;14.67;;;;;;;;;;5043077;28;20174;-79
2022/12/02 08:15:18;;;;;;;34.10;13.63;;;;;;;;;;5041012;28;20733;-78
2022/12/02 08:17:43;;;;;;;29.20;12.77;;;;;;;;;;5041348;28;20174;-79
2022/12/02 08:20:10;;;;;;;24.73;11.77;;;;;;;;;;5022700;28;20239;-79
2022/12/02 08:22:35;;;;;;;29.90;14.60;;;;;;;;;;5023611;28;20784;-79
2022/12/02 08:25:00;;;;;;;26.63;12.33;;;;;;;;;;5048880;28;20178;-79
2022/12/02 08:27:26;;;;;;;29.53;14.13;;;;;;;;;;5044017;28;20214;-79
2022/12/02 08:29:51;;;;;;;28.47;14.20;;;;;;;;;;5042334;28;20181;-78
2022/12/02 08:32:16;;;;;;;32.53;13.80;;;;;;;;;;5047164;28;20182;-79
2022/12/02 08:34:42;;;;;;;25.57;12.97;;;;;;;;;;5046923;28;20175;-79
2022/12/02 08:37:07;;;;;;;28.97;14.00;;;;;;;;;;5047392;28;20229;-82
2022/12/02 08:39:32;;;;;;;27.57;13.37;;;;;;;;;;5026516;28;20182;-78
2022/12/02 08:41:57;;;;;;;31.63;13.90;;;;;;;;;;5043056;28;20329;-79
2022/12/02 08:44:22;;;;;;;33.13;15.13;;;;;;;;;;5036806;28;20186;-78
2022/12/02 08:46:48;;;;;;;28.67;14.67;;;;;;;;;;5037806;28;20259;-79
2022/12/02 08:49:13;;;;;;;30.17;14.07;;;;;;;;;;5039873;28;20174;-79
2022/12/02 08:51:38;;;;;;;29.30;15.20;;;;;;;;;;5023350;28;20178;-79
2022/12/02 08:54:03;;;;;;;30.80;13.63;;;;;;;;;;5029117;28;20181;-79
2022/12/02 08:56:28;;;;;;;31.93;16.47;;;;;;;;;;5027324;28;20212;-79
2022/12/02 08:58:54;;;;;;;27.13;13.77;;;;;;;;;;5027827;28;20202;-79
2022/12/02 09:01:19;;;;;;;33.43;14.50;;;;;;;;;;5043700;28;20185;-79
2022/12/02 09:03:44;;;;;;;28.17;13.47;;;;;;;;;;5044016;28;20178;-78
2022/12/02 09:06:09;;;;;;;26.00;13.23;;;;;;;;;;5051773;28;20194;-79
2022/12/02 09:08:34;;;;;;;30.33;13.73;;;;;;;;;;5047458;28;20212;-79
2022/12/02 09:11:00;;;;;;;25.90;12.17;;;;;;;;;;5029640;28;20170;-78
2022/12/02 09:13:25;;;;;;;29.70;13.33;;;;;;;;;;5032003;28;20183;-78
2022/12/02 09:15:50;;;;;;;29.70;14.50;;;;;;;;;;5025009;28;20256;-79
2022/12/02 09:18:15;;;;;;;28.87;13.80;;;;;;;;;;5021784;28;20182;-79
2022/12/02 09:20:41;;;;;;;29.50;13.87;;;;;;;;;;5040621;28;20171;-78
2022/12/02 09:23:06;;;;;;;27.70;13.30;;;;;;;;;;5043667;28;20191;-78
2022/12/02 09:25:31;;;;;;;30.90;15.17;;;;;;;;;;5046966;28;20191;-79
2022/12/02 09:27:56;;;;;;;34.20;14.20;;;;;;;;;;5041912;28;20715;-78
2022/12/02 09:30:21;;;;;;;27.20;13.83;;;;;;;;;;5043189;28;20192;-79
2022/12/02 09:32:47;;;;;;;30.03;14.33;;;;;;;;;;5042690;28;20178;-79
2022/12/02 09:35:12;;;;;;;27.87;12.77;;;;;;;;;;5021459;28;20222;-78
2022/12/02 09:37:37;;;;;;;27.20;13.50;;;;;;;;;;5043306;28;20253;-78
2022/12/02 09:40:03;;;;;;;25.83;13.67;;;;;;;;;;5040687;28;20238;-79
2022/12/02 09:42:28;;;;;;;26.57;14.50;;;;;;;;;;5042479;28;20184;-79
2022/12/02 09:44:54;;;;;;;25.07;12.40;;;;;;;;;;5023895;28;20174;-78
2022/12/02 09:47:19;;;;;;;32.27;16.30;;;;;;;;;;5044569;28;20217;-79
2022/12/02 09:49:45;;;;;;;31.17;14.47;;;;;;;;;;5027395;28;20174;-79
2022/12/02 09:52:14;;;;;;;24.63;13.07;;;;;;;;;;5026353;28;20619;-79
2022/12/02 09:54:40;;;;;;;27.27;14.33;;;;;;;;;;5044609;28;20247;-79
2022/12/02 09:57:08;;;;;;;28.70;13.47;;;;;;;;;;5024772;28;20242;-79
2022/12/02 09:59:33;;;;;;;25.90;12.63;;;;;;;;;;5046545;28;20254;-79
2022/12/02 10:01:59;;;;;;;26.80;13.30;;;;;;;;;;5041197;28;20190;-79
2022/12/02 10:04:24;;;;;;;26.87;13.90;;;;;;;;;;5047478;28;20205;-79
2022/12/02 10:06:49;;;;;;;29.77;13.37;;;;;;;;;;5042944;28;20698;-79
2022/12/02 10:09:26;;;;;;;28.50;14.17;;;;;;;;;;5022317;28;20443;-79
2022/12/02 10:11:51;;;;;;;27.87;13.83;;;;;;;;;;5042341;28;20186;-79
2022/12/02 10:14:17;;;;;;;32.53;13.63;;;;;;;;;;5039717;28;20645;-79
2022/12/02 10:16:42;;;;;;;26.10;13.97;;;;;;;;;;5042937;28;20795;-79
2022/12/02 10:19:11;;;;;;;28.93;13.83;;;;;;;;;;5027524;28;20599;-78
2022/12/02 10:21:36;;;;;;;23.57;12.60;;;;;;;;;;5050963;28;20237;-79
2022/12/02 10:24:03;;;;;;;29.00;13.63;;;;;;;;;;5044167;28;20214;-79
2022/12/02 10:26:58;;;;;;;28.43;13.90;;;;;;;;;;5049496;28;20209;-79
2022/12/02 10:29:27;;;;;;;28.93;13.33;;;;;;;;;;5027487;28;20267;-78
2022/12/02 10:31:57;;;;;;;31.33;13.87;;;;;;;;;;5023730;28;20174;-78
2022/12/02 10:34:23;;;;;;;29.60;13.13;;;;;;;;;;5021168;28;20222;-79
2022/12/02 10:36:49;;;;;;;25.43;12.30;;;;;;;;;;5041870;28;20225;-79
2022/12/02 10:39:23;;;;;;;25.70;12.93;;;;;;;;;;5028046;28;20174;-78
2022/12/02 10:42:03;;;;;;;25.13;12.63;;;;;;;;;;5043516;28;20182;-79
2022/12/02 10:44:29;;;;;;;22.30;12.37;;;;;;;;;;5022018;28;20201;-81
2022/12/02 10:47:08;;;;;;;22.07;11.50;;;;;;;;;;5030942;28;20216;-78
2022/12/02 10:49:34;;;;;;;25.77;12.43;;;;;;;;;;5027162;28;20182;-79
2022/12/02 10:52:09;;;;;;;25.90;12.33;;;;;;;;;;5041685;28;20194;-79
2022/12/02 10:54:36;;;;;;;25.37;13.73;;;;;;;;;;5037202;28;20552;-78
2022/12/02 10:57:01;;;;;;;28.23;11.43;;;;;;;;;;5036182;28;20206;-79
2022/12/02 10:59:27;;;;;;;25.40;12.60;;;;;;;;;;5040377;28;20206;-78
2022/12/02 11:01:53;;;;;;;24.07;11.77;;;;;;;;;;5021873;28;20192;-79
2022/12/02 11:04:18;;;;;;;27.73;13.03;;;;;;;;;;5044428;28;20841;-78
2022/12/02 11:06:44;;;;;;;27.67;11.83;;;;;;;;;;5026674;28;20230;-79
2022/12/02 11:09:23;;;;;;;24.40;11.20;;;;;;;;;;5044306;28;20193;-79
2022/12/02 11:11:48;;;;;;;31.30;14.13;;;;;;;;;;5046448;28;20269;-79
2022/12/02 11:14:32;;;;;;;26.10;12.47;;;;;;;;;;5043661;28;20199;-79
2022/12/02 11:17:18;;;;;;;28.77;13.00;;;;;;;;;;5037921;28;20193;-79
2022/12/02 11:19:45;;;;;;;24.53;12.73;;;;;;;;;;5042621;28;20190;-79
2022/12/02 11:22:29;;;;;;;24.13;12.63;;;;;;;;;;5044195;28;20679;-80
2022/12/02 11:24:54;;;;;;;24.13;12.13;;;;;;;;;;5046337;28;20170;-79
2022/12/02 11:27:19;;;;;;;28.53;13.10;;;;;;;;;;5047781;28;20206;-78
2022/12/02 11:30:03;;;;;;;26.47;12.43;;;;;;;;;;5026475;28;20639;-79
2022/12/02 11:32:28;;;;;;;27.70;12.47;;;;;;;;;;5025043;28;20265;-79
2022/12/02 11:34:53;;;;;;;24.67;12.87;;;;;;;;;;5044807;28;20189;-79
2022/12/02 11:37:25;;;;;;;24.97;13.03;;;;;;;;;;5044467;28;20291;-78
2022/12/02 11:39:51;;;;;;;26.70;13.00;;;;;;;;;;5038933;28;20234;-79
2022/12/02 11:42:18;;;;;;;25.80;12.03;;;;;;;;;;5041756;28;20682;-79
2022/12/02 11:44:44;;;;;;;27.20;13.17;;;;;;;;;;5036418;28;20174;-79
2022/12/02 11:47:21;;;;;;;29.47;12.70;;;;;;;;;;5044351;28;20679;-79
2022/12/02 11:49:46;;;;;;;26.00;13.47;;;;;;;;;;5028292;28;20173;-79
2022/12/02 11:52:15;;;;;;;26.33;13.67;;;;;;;;;;5045491;28;20170;-79
2022/12/02 11:54:53;;;;;;;28.93;14.00;;;;;;;;;;5030957;28;20175;-79
2022/12/02 11:57:20;;;;;;;31.20;13.17;;;;;;;;;;5047786;28;20222;-78
2022/12/02 11:59:46;;;;;;;28.00;12.53;;;;;;;;;;5047334;28;20637;-78
2022/12/02 12:02:15;;;;;;;32.33;14.17;;;;;;;;;;5043804;28;20184;-79
2022/12/02 12:04:41;;;;;;;28.37;13.90;;;;;;;;;;5040701;28;20186;-78
2022/12/02 12:07:07;;;;;;;29.47;13.33;;;;;;;;;;5020005;28;20258;-80
2022/12/02 12:09:33;;;;;;;26.17;11.90;;;;;;;;;;5042586;28;20685;-79
2022/12/02 12:12:15;;;;;;;27.47;13.83;;;;;;;;;;5042219;28;20364;-79
2022/12/02 12:14:57;;;;;;;32.40;13.63;;;;;;;;;;5039501;28;20239;-79
2022/12/02 12:17:37;;;;;;;30.90;13.03;;;;;;;;;;5042786;28;20197;-79
2022/12/02 12:20:23;;;;;;;33.87;13.77;;;;;;;;;;5040002;28;20185;-79
2022/12/02 12:22:48;;;;;;;35.37;14.83;;;;;;;;;;5027901;28;20193;-79
2022/12/02 12:25:32;;;;;;;38.13;16.60;;;;;;;;;;5019807;28;20245;-79
2022/12/02 12:27:57;;;;;;;38.90;17.33;;;;;;;;;;5023828;28;20206;-79
2022/12/02 12:30:23;;;;;;;37.37;16.90;;;;;;;;;;5042776;28;20209;-80
2022/12/02 12:32:48;;;;;;;39.10;17.00;;;;;;;;;;5040807;28;20273;-79
2022/12/02 12:35:13;;;;;;;35.63;15.97;;;;;;;;;;5024561;28;20265;-79
2022/12/02 12:37:38;;;;;;;40.67;15.03;;;;;;;;;;5040488;28;20644;-79
2022/12/02 12:40:04;;;;;;;39.47;15.43;;;;;;;;;;5040676;28;20178;-79
2022/12/02 12:42:29;;;;;;;36.23;17.27;;;;;;;;;;5042681;28;20660;-79
2022/12/02 12:44:54;;;;;;;33.60;15.53;;;;;;;;;;5042329;28;20212;-79
2022/12/02 12:47:19;;;;;;;32.53;14.77;;;;;;;;;;5038173;28;20292;-79
2022/12/02 12:49:44;;;;;;;33.87;15.20;;;;;;;;;;5024521;28;20176;-80
2022/12/02 12:52:10;;;;;;;38.30;16.97;;;;;;;;;;5042214;28;20183;-79
2022/12/02 12:54:35;;;;;;;37.47;15.60;;;;;;;;;;5042726;28;20186;-80
2022/12/02 12:57:00;;;;;;;40.70;17.97;;;;;;;;;;5037319;28;20202;-79
2022/12/02 12:59:26;;;;;;;38.50;14.77;;;;;;;;;;5041028;28;20182;-80
2022/12/02 13:01:51;;;;;;;37.83;16.93;;;;;;;;;;5037786;28;20269;-80
2022/12/02 13:04:16;;;;;;;43.73;15.53;;;;;;;;;;5021816;28;20543;-79
2022/12/02 13:06:41;;;;;;;39.23;16.87;;;;;;;;;;5022223;28;20229;-80
2022/12/02 13:09:07;;;;;;;31.73;14.43;;;;;;;;;;5029264;28;20225;-81
2022/12/02 13:11:32;;;;;;;34.07;15.50;;;;;;;;;;5038736;28;20171;-80
2022/12/02 13:13:57;;;;;;;36.57;15.93;;;;;;;;;;5040317;28;20175;-79
2022/12/02 13:16:22;;;;;;;36.57;15.90;;;;;;;;;;5021781;28;20202;-79
2022/12/02 13:18:48;;;;;;;32.27;14.73;;;;;;;;;;5025868;28;20185;-79
2022/12/02 13:21:13;;;;;;;36.70;14.87;;;;;;;;;;5019514;28;20233;-79
2022/12/02 13:23:38;;;;;;;36.00;14.40;;;;;;;;;;5043160;28;20167;-79
2022/12/02 13:26:03;;;;;;;39.63;16.57;;;;;;;;;;5042510;28;20198;-80
2022/12/02 13:28:28;;;;;;;31.30;14.53;;;;;;;;;;5045882;28;20265;-80
2022/12/02 13:30:54;;;;;;;30.47;13.27;;;;;;;;;;5025226;28;20178;-80
2022/12/02 13:33:20;;;;;;;38.37;16.43;;;;;;;;;;5021597;28;20231;-79
2022/12/02 13:35:45;;;;;;;33.57;14.57;;;;;;;;;;5014793;28;20198;-79
2022/12/02 13:38:10;;;;;;;38.53;15.80;;;;;;;;;;5057488;22;20234;-72
2022/12/02 13:40:35;;;;;;;34.83;16.33;;;;;;;;;;5027661;28;20188;-72
2022/12/02 13:43:01;;;;;;;38.43;15.93;;;;;;;;;;5051686;28;20259;-71
2022/12/02 13:45:26;;;;;;;35.93;16.43;;;;;;;;;;5051069;28;20239;-72
2022/12/02 13:47:52;;;;;;;36.67;16.93;;;;;;;;;;5051310;28;20209;-72
2022/12/02 13:50:17;;;;;;;32.10;15.20;;;;;;;;;;5053823;28;20654;-72
2022/12/02 13:52:42;;;;;;;37.27;16.77;;;;;;;;;;5043876;28;20554;-72
2022/12/02 13:55:08;;;;;;;33.73;12.77;;;;;;;;;;5052806;28;20171;-72
2022/12/02 13:57:33;;;;;;;31.53;14.53;;;;;;;;;;5031546;28;20209;-72
2022/12/02 13:59:58;;;;;;;37.27;15.10;;;;;;;;;;5050277;28;20256;-72
2022/12/02 14:02:23;;;;;;;35.90;15.43;;;;;;;;;;5049639;28;20173;-72
2022/12/02 14:04:48;;;;;;;35.10;15.40;;;;;;;;;;5049524;28;20186;-72
2022/12/02 14:07:13;;;;;;;28.47;13.63;;;;;;;;;;5053881;28;20216;-72
2022/12/02 14:09:39;;;;;;;37.80;15.90;;;;;;;;;;5048149;28;20176;-72
2022/12/02 14:12:04;;;;;;;32.63;13.93;;;;;;;;;;5049086;28;20658;-71
2022/12/02 14:14:29;;;;;;;25.33;12.93;;;;;;;;;;5050377;28;20178;-72
2022/12/02 14:16:54;;;;;;;28.80;12.17;;;;;;;;;;5054230;28;20193;-72
2022/12/02 14:19:20;;;;;;;32.37;14.00;;;;;;;;;;5051572;28;20282;-72
2022/12/02 14:21:45;;;;;;;27.93;13.00;;;;;;;;;;5051778;28;20176;-71